sensor_id;sensor_type;location;lat;lon;timestamp;P1;durP1;ratioP1;P2;durP2;ratioP2
18146;SDS011;9199;48.832;9.182;2023-05-16T00:01:48;13.50;;;9.00;;
18146;SDS011;9199;48.832;9.182;2023-05-16T00:04:15;13.85;;;9.40;;
18146;SDS011;9199;48.832;9.182;2023-05-16T00:06:43;13.48;;;9.20;;
18146;SDS011;9199;48.832;9.182;2023-05-16T00:09:09;12.63;;;9.10;;
18146;SDS011;9199;48.832;9.182;2023-05-16T00:11:36;13.37;;;9.33;;
18146;SDS011;9199;48.832;9.182;2023-05-16T00:14:02;13.73;;;10.40;;
18146;SDS011;9199;48.832;9.182;2023-05-16T00:16:29;14.02;;;9.70;;
18146;SDS011;9199;48.832;9.182;2023-05-16T00:18:56;13.38;;;9.80;;
18146;SDS011;9199;48.832;9.182;2023-05-16T00:21:24;13.77;;;10.07;;
18146;SDS011;9199;48.832;9.182;2023-05-16T00:23:52;13.77;;;10.27;;
18146;SDS011;9199;48.832;9.182;2023-05-16T00:26:19;14.30;;;10.10;;
18146;SDS011;9199;48.832;9.182;2023-05-16T00:28:46;14.68;;;10.43;;
18146;SDS011;9199;48.832;9.182;2023-05-16T00:31:13;15.05;;;10.25;;
18146;SDS011;9199;48.832;9.182;2023-05-16T00:33:39;14.10;;;10.73;;
18146;SDS011;9199;48.832;9.182;2023-05-16T00:36:06;15.00;;;10.50;;
18146;SDS011;9199;48.832;9.182;2023-05-16T00:38:33;14.80;;;10.38;;
18146;SDS011;9199;48.832;9.182;2023-05-16T00:41:01;14.70;;;10.88;;
18146;SDS011;9199;48.832;9.182;2023-05-16T00:43:28;15.38;;;10.80;;
18146;SDS011;9199;48.832;9.182;2023-05-16T00:45:55;18.88;;;11.18;;
18146;SDS011;9199;48.832;9.182;2023-05-16T00:48:22;17.77;;;10.90;;
18146;SDS011;9199;48.832;9.182;2023-05-16T00:50:49;18.33;;;11.65;;
18146;SDS011;9199;48.832;9.182;2023-05-16T00:53:16;17.05;;;11.77;;
18146;SDS011;9199;48.832;9.182;2023-05-16T00:55:43;19.75;;;13.43;;
18146;SDS011;9199;48.832;9.182;2023-05-16T00:58:12;20.27;;;13.90;;
18146;SDS011;9199;48.832;9.182;2023-05-16T01:00:40;20.90;;;14.13;;
18146;SDS011;9199;48.832;9.182;2023-05-16T01:03:07;22.83;;;14.13;;
18146;SDS011;9199;48.832;9.182;2023-05-16T01:05:33;20.67;;;14.48;;
18146;SDS011;9199;48.832;9.182;2023-05-16T01:08:00;20.80;;;14.10;;
18146;SDS011;9199;48.832;9.182;2023-05-16T01:10:28;22.73;;;14.90;;
18146;SDS011;9199;48.832;9.182;2023-05-16T01:13:04;21.93;;;15.23;;
18146;SDS011;9199;48.832;9.182;2023-05-16T01:15:38;22.58;;;15.63;;
18146;SDS011;9199;48.832;9.182;2023-05-16T01:18:14;22.23;;;15.60;;
18146;SDS011;9199;48.832;9.182;2023-05-16T01:20:48;25.00;;;15.32;;
18146;SDS011;9199;48.832;9.182;2023-05-16T01:23:22;22.77;;;15.55;;
18146;SDS011;9199;48.832;9.182;2023-05-16T01:26:10;26.20;;;16.53;;
18146;SDS011;9199;48.832;9.182;2023-05-16T01:28:39;23.27;;;15.93;;
18146;SDS011;9199;48.832;9.182;2023-05-16T01:31:07;25.35;;;16.75;;
18146;SDS011;9199;48.832;9.182;2023-05-16T01:33:33;22.25;;;16.15;;
18146;SDS011;9199;48.832;9.182;2023-05-16T01:36:02;24.38;;;15.95;;
18146;SDS011;9199;48.832;9.182;2023-05-16T01:38:35;27.80;;;17.93;;
18146;SDS011;9199;48.832;9.182;2023-05-16T01:41:07;28.35;;;18.42;;
18146;SDS011;9199;48.832;9.182;2023-05-16T01:43:41;29.98;;;20.02;;
18146;SDS011;9199;48.832;9.182;2023-05-16T01:46:10;32.33;;;19.83;;
18146;SDS011;9199;48.832;9.182;2023-05-16T01:48:41;32.83;;;20.50;;
18146;SDS011;9199;48.832;9.182;2023-05-16T01:51:14;32.30;;;19.93;;
18146;SDS011;9199;48.832;9.182;2023-05-16T01:53:41;33.25;;;20.83;;
18146;SDS011;9199;48.832;9.182;2023-05-16T01:56:10;31.95;;;20.33;;
18146;SDS011;9199;48.832;9.182;2023-05-16T01:58:41;33.47;;;20.95;;
18146;SDS011;9199;48.832;9.182;2023-05-16T02:01:10;33.15;;;21.65;;
18146;SDS011;9199;48.832;9.182;2023-05-16T02:03:38;35.77;;;21.20;;
18146;SDS011;9199;48.832;9.182;2023-05-16T02:06:05;38.08;;;22.35;;
18146;SDS011;9199;48.832;9.182;2023-05-16T02:08:31;33.70;;;21.75;;
18146;SDS011;9199;48.832;9.182;2023-05-16T02:10:59;37.80;;;22.58;;
18146;SDS011;9199;48.832;9.182;2023-05-16T02:13:27;36.90;;;23.13;;
18146;SDS011;9199;48.832;9.182;2023-05-16T02:15:53;37.30;;;22.43;;
18146;SDS011;9199;48.832;9.182;2023-05-16T02:18:20;38.00;;;22.92;;
18146;SDS011;9199;48.832;9.182;2023-05-16T02:20:47;39.85;;;23.10;;
18146;SDS011;9199;48.832;9.182;2023-05-16T02:23:14;42.17;;;23.58;;
18146;SDS011;9199;48.832;9.182;2023-05-16T02:25:41;36.15;;;21.95;;
18146;SDS011;9199;48.832;9.182;2023-05-16T02:28:08;39.37;;;22.73;;
18146;SDS011;9199;48.832;9.182;2023-05-16T02:30:36;36.53;;;22.63;;
18146;SDS011;9199;48.832;9.182;2023-05-16T02:33:02;39.20;;;24.05;;
18146;SDS011;9199;48.832;9.182;2023-05-16T02:35:29;39.40;;;23.02;;
18146;SDS011;9199;48.832;9.182;2023-05-16T02:37:56;41.10;;;23.00;;
18146;SDS011;9199;48.832;9.182;2023-05-16T02:40:22;43.27;;;24.13;;
18146;SDS011;9199;48.832;9.182;2023-05-16T02:42:49;41.53;;;23.58;;
18146;SDS011;9199;48.832;9.182;2023-05-16T02:45:16;42.80;;;26.25;;
18146;SDS011;9199;48.832;9.182;2023-05-16T02:47:44;42.17;;;24.30;;
18146;SDS011;9199;48.832;9.182;2023-05-16T02:50:10;43.50;;;24.42;;
18146;SDS011;9199;48.832;9.182;2023-05-16T02:52:37;45.57;;;24.80;;
18146;SDS011;9199;48.832;9.182;2023-05-16T02:55:05;44.42;;;24.63;;
18146;SDS011;9199;48.832;9.182;2023-05-16T02:57:32;50.90;;;26.27;;
18146;SDS011;9199;48.832;9.182;2023-05-16T02:59:58;44.33;;;25.20;;
18146;SDS011;9199;48.832;9.182;2023-05-16T03:02:25;42.72;;;24.17;;
18146;SDS011;9199;48.832;9.182;2023-05-16T03:04:53;44.07;;;25.03;;
18146;SDS011;9199;48.832;9.182;2023-05-16T03:07:20;45.08;;;24.77;;
18146;SDS011;9199;48.832;9.182;2023-05-16T03:09:46;47.03;;;25.70;;
18146;SDS011;9199;48.832;9.182;2023-05-16T03:12:13;52.28;;;26.70;;
18146;SDS011;9199;48.832;9.182;2023-05-16T03:14:40;46.03;;;25.95;;
18146;SDS011;9199;48.832;9.182;2023-05-16T03:17:06;47.57;;;25.83;;
18146;SDS011;9199;48.832;9.182;2023-05-16T03:19:33;49.53;;;25.63;;
18146;SDS011;9199;48.832;9.182;2023-05-16T03:22:01;50.63;;;26.73;;
18146;SDS011;9199;48.832;9.182;2023-05-16T03:24:28;57.42;;;27.38;;
18146;SDS011;9199;48.832;9.182;2023-05-16T03:26:54;54.88;;;27.05;;
18146;SDS011;9199;48.832;9.182;2023-05-16T03:29:21;54.37;;;27.07;;
18146;SDS011;9199;48.832;9.182;2023-05-16T03:31:48;54.22;;;27.80;;
18146;SDS011;9199;48.832;9.182;2023-05-16T03:34:14;56.72;;;27.83;;
18146;SDS011;9199;48.832;9.182;2023-05-16T03:36:41;62.72;;;28.27;;
18146;SDS011;9199;48.832;9.182;2023-05-16T03:39:09;56.47;;;29.08;;
18146;SDS011;9199;48.832;9.182;2023-05-16T03:41:36;54.97;;;28.10;;
18146;SDS011;9199;48.832;9.182;2023-05-16T03:44:03;57.35;;;28.30;;
18146;SDS011;9199;48.832;9.182;2023-05-16T03:46:29;54.10;;;28.52;;
18146;SDS011;9199;48.832;9.182;2023-05-16T03:48:56;59.08;;;28.58;;
18146;SDS011;9199;48.832;9.182;2023-05-16T03:51:23;58.63;;;30.08;;
18146;SDS011;9199;48.832;9.182;2023-05-16T03:53:49;64.87;;;30.13;;
18146;SDS011;9199;48.832;9.182;2023-05-16T03:56:17;59.17;;;29.55;;
18146;SDS011;9199;48.832;9.182;2023-05-16T03:58:45;61.75;;;30.13;;
18146;SDS011;9199;48.832;9.182;2023-05-16T04:01:12;57.45;;;29.20;;
18146;SDS011;9199;48.832;9.182;2023-05-16T04:03:39;60.42;;;29.52;;
18146;SDS011;9199;48.832;9.182;2023-05-16T04:06:06;57.70;;;29.10;;
18146;SDS011;9199;48.832;9.182;2023-05-16T04:08:33;58.17;;;29.50;;
18146;SDS011;9199;48.832;9.182;2023-05-16T04:11:00;60.92;;;29.63;;
18146;SDS011;9199;48.832;9.182;2023-05-16T04:13:28;54.13;;;29.10;;
18146;SDS011;9199;48.832;9.182;2023-05-16T04:15:55;54.30;;;28.38;;
18146;SDS011;9199;48.832;9.182;2023-05-16T04:18:21;57.07;;;28.73;;
18146;SDS011;9199;48.832;9.182;2023-05-16T04:20:48;58.58;;;29.17;;
18146;SDS011;9199;48.832;9.182;2023-05-16T04:23:15;55.47;;;28.58;;
18146;SDS011;9199;48.832;9.182;2023-05-16T04:25:41;57.53;;;28.50;;
18146;SDS011;9199;48.832;9.182;2023-05-16T04:28:08;58.42;;;29.33;;
18146;SDS011;9199;48.832;9.182;2023-05-16T04:30:36;58.70;;;28.07;;
18146;SDS011;9199;48.832;9.182;2023-05-16T04:33:03;57.28;;;28.83;;
18146;SDS011;9199;48.832;9.182;2023-05-16T04:35:30;59.70;;;29.90;;
18146;SDS011;9199;48.832;9.182;2023-05-16T04:37:57;54.13;;;29.17;;
18146;SDS011;9199;48.832;9.182;2023-05-16T04:40:24;55.85;;;27.80;;
18146;SDS011;9199;48.832;9.182;2023-05-16T04:42:51;54.53;;;28.43;;
18146;SDS011;9199;48.832;9.182;2023-05-16T04:45:19;57.00;;;29.35;;
18146;SDS011;9199;48.832;9.182;2023-05-16T04:47:47;54.05;;;27.30;;
18146;SDS011;9199;48.832;9.182;2023-05-16T04:50:15;52.30;;;27.90;;
18146;SDS011;9199;48.832;9.182;2023-05-16T04:52:42;54.15;;;27.25;;
18146;SDS011;9199;48.832;9.182;2023-05-16T04:55:09;50.27;;;26.73;;
18146;SDS011;9199;48.832;9.182;2023-05-16T04:57:36;56.85;;;29.20;;
18146;SDS011;9199;48.832;9.182;2023-05-16T05:00:03;52.70;;;28.00;;
18146;SDS011;9199;48.832;9.182;2023-05-16T05:02:34;48.28;;;25.23;;
18146;SDS011;9199;48.832;9.182;2023-05-16T05:05:02;50.65;;;25.67;;
18146;SDS011;9199;48.832;9.182;2023-05-16T05:07:29;50.73;;;25.80;;
18146;SDS011;9199;48.832;9.182;2023-05-16T05:09:56;48.40;;;26.05;;
18146;SDS011;9199;48.832;9.182;2023-05-16T05:12:22;46.22;;;25.88;;
18146;SDS011;9199;48.832;9.182;2023-05-16T05:14:51;49.35;;;26.20;;
18146;SDS011;9199;48.832;9.182;2023-05-16T05:17:18;48.25;;;25.13;;
18146;SDS011;9199;48.832;9.182;2023-05-16T05:19:45;47.27;;;24.97;;
18146;SDS011;9199;48.832;9.182;2023-05-16T05:22:13;47.03;;;26.63;;
18146;SDS011;9199;48.832;9.182;2023-05-16T05:24:40;47.20;;;25.17;;
18146;SDS011;9199;48.832;9.182;2023-05-16T05:27:07;47.50;;;26.00;;
18146;SDS011;9199;48.832;9.182;2023-05-16T05:29:33;47.55;;;25.00;;
18146;SDS011;9199;48.832;9.182;2023-05-16T05:32:00;45.33;;;24.73;;
18146;SDS011;9199;48.832;9.182;2023-05-16T05:34:27;44.70;;;26.05;;
18146;SDS011;9199;48.832;9.182;2023-05-16T05:36:53;47.05;;;26.00;;
18146;SDS011;9199;48.832;9.182;2023-05-16T05:39:22;42.85;;;24.25;;
18146;SDS011;9199;48.832;9.182;2023-05-16T05:41:49;43.97;;;24.08;;
18146;SDS011;9199;48.832;9.182;2023-05-16T05:44:16;43.33;;;23.50;;
18146;SDS011;9199;48.832;9.182;2023-05-16T05:46:43;46.55;;;25.55;;
18146;SDS011;9199;48.832;9.182;2023-05-16T05:49:10;41.45;;;24.33;;
18146;SDS011;9199;48.832;9.182;2023-05-16T05:51:37;42.65;;;24.40;;
18146;SDS011;9199;48.832;9.182;2023-05-16T05:54:04;45.25;;;24.92;;
18146;SDS011;9199;48.832;9.182;2023-05-16T05:56:32;43.47;;;24.40;;
18146;SDS011;9199;48.832;9.182;2023-05-16T05:58:59;40.97;;;24.00;;
18146;SDS011;9199;48.832;9.182;2023-05-16T06:01:25;43.38;;;25.25;;
18146;SDS011;9199;48.832;9.182;2023-05-16T06:03:52;45.08;;;25.42;;
18146;SDS011;9199;48.832;9.182;2023-05-16T06:06:19;41.88;;;24.15;;
18146;SDS011;9199;48.832;9.182;2023-05-16T06:08:45;42.90;;;24.20;;
18146;SDS011;9199;48.832;9.182;2023-05-16T06:11:12;41.75;;;23.20;;
18146;SDS011;9199;48.832;9.182;2023-05-16T06:13:40;40.17;;;24.05;;
18146;SDS011;9199;48.832;9.182;2023-05-16T06:16:07;42.80;;;23.95;;
18146;SDS011;9199;48.832;9.182;2023-05-16T06:18:34;42.35;;;24.48;;
18146;SDS011;9199;48.832;9.182;2023-05-16T06:21:00;35.70;;;21.93;;
18146;SDS011;9199;48.832;9.182;2023-05-16T06:23:27;39.35;;;22.45;;
18146;SDS011;9199;48.832;9.182;2023-05-16T06:25:53;41.50;;;23.05;;
18146;SDS011;9199;48.832;9.182;2023-05-16T06:28:20;40.35;;;22.38;;
18146;SDS011;9199;48.832;9.182;2023-05-16T06:30:49;41.88;;;23.27;;
18146;SDS011;9199;48.832;9.182;2023-05-16T06:33:16;39.30;;;22.93;;
18146;SDS011;9199;48.832;9.182;2023-05-16T06:35:43;35.70;;;21.90;;
18146;SDS011;9199;48.832;9.182;2023-05-16T06:38:10;38.22;;;22.40;;
18146;SDS011;9199;48.832;9.182;2023-05-16T06:40:37;36.10;;;20.88;;
18146;SDS011;9199;48.832;9.182;2023-05-16T06:43:03;37.30;;;21.58;;
18146;SDS011;9199;48.832;9.182;2023-05-16T06:45:30;38.03;;;21.87;;
18146;SDS011;9199;48.832;9.182;2023-05-16T06:47:58;34.42;;;20.40;;
18146;SDS011;9199;48.832;9.182;2023-05-16T06:50:25;38.67;;;19.98;;
18146;SDS011;9199;48.832;9.182;2023-05-16T06:52:51;34.22;;;21.00;;
18146;SDS011;9199;48.832;9.182;2023-05-16T06:55:18;31.92;;;20.20;;
18146;SDS011;9199;48.832;9.182;2023-05-16T06:57:45;31.67;;;19.37;;
18146;SDS011;9199;48.832;9.182;2023-05-16T07:00:12;36.08;;;19.73;;
18146;SDS011;9199;48.832;9.182;2023-05-16T07:02:39;34.47;;;19.80;;
18146;SDS011;9199;48.832;9.182;2023-05-16T07:05:08;31.67;;;19.25;;
18146;SDS011;9199;48.832;9.182;2023-05-16T07:07:35;32.72;;;18.85;;
18146;SDS011;9199;48.832;9.182;2023-05-16T07:10:01;29.87;;;18.23;;
18146;SDS011;9199;48.832;9.182;2023-05-16T07:12:28;29.05;;;18.27;;
18146;SDS011;9199;48.832;9.182;2023-05-16T07:14:55;26.63;;;16.90;;
18146;SDS011;9199;48.832;9.182;2023-05-16T07:17:22;26.90;;;16.48;;
18146;SDS011;9199;48.832;9.182;2023-05-16T07:19:48;21.42;;;13.50;;
18146;SDS011;9199;48.832;9.182;2023-05-16T07:22:16;21.80;;;14.23;;
18146;SDS011;9199;48.832;9.182;2023-05-16T07:24:43;18.73;;;12.30;;
18146;SDS011;9199;48.832;9.182;2023-05-16T07:27:10;18.00;;;12.13;;
18146;SDS011;9199;48.832;9.182;2023-05-16T07:29:37;18.60;;;11.73;;
18146;SDS011;9199;48.832;9.182;2023-05-16T07:32:04;17.30;;;11.43;;
18146;SDS011;9199;48.832;9.182;2023-05-16T07:34:31;17.53;;;10.97;;
18146;SDS011;9199;48.832;9.182;2023-05-16T07:36:58;14.75;;;10.65;;
18146;SDS011;9199;48.832;9.182;2023-05-16T07:39:26;16.45;;;10.27;;
18146;SDS011;9199;48.832;9.182;2023-05-16T07:41:53;12.50;;;9.43;;
18146;SDS011;9199;48.832;9.182;2023-05-16T07:44:19;14.55;;;10.20;;
18146;SDS011;9199;48.832;9.182;2023-05-16T07:46:46;17.33;;;9.90;;
18146;SDS011;9199;48.832;9.182;2023-05-16T07:49:13;15.93;;;10.50;;
18146;SDS011;9199;48.832;9.182;2023-05-16T07:51:39;14.07;;;9.93;;
18146;SDS011;9199;48.832;9.182;2023-05-16T07:54:06;15.90;;;10.20;;
18146;SDS011;9199;48.832;9.182;2023-05-16T07:56:34;15.18;;;10.30;;
18146;SDS011;9199;48.832;9.182;2023-05-16T07:59:01;15.90;;;9.63;;
18146;SDS011;9199;48.832;9.182;2023-05-16T08:01:29;13.93;;;10.40;;
18146;SDS011;9199;48.832;9.182;2023-05-16T08:03:56;14.23;;;10.00;;
18146;SDS011;9199;48.832;9.182;2023-05-16T08:06:23;11.80;;;8.98;;
18146;SDS011;9199;48.832;9.182;2023-05-16T08:08:50;14.23;;;9.52;;
18146;SDS011;9199;48.832;9.182;2023-05-16T08:11:17;12.43;;;8.93;;
18146;SDS011;9199;48.832;9.182;2023-05-16T08:13:48;14.35;;;9.32;;
18146;SDS011;9199;48.832;9.182;2023-05-16T08:16:15;13.80;;;8.98;;
18146;SDS011;9199;48.832;9.182;2023-05-16T08:18:41;13.23;;;9.32;;
18146;SDS011;9199;48.832;9.182;2023-05-16T08:21:08;12.50;;;9.57;;
18146;SDS011;9199;48.832;9.182;2023-05-16T08:23:35;14.17;;;9.83;;
18146;SDS011;9199;48.832;9.182;2023-05-16T08:26:01;17.08;;;9.77;;
18146;SDS011;9199;48.832;9.182;2023-05-16T08:28:28;14.25;;;10.60;;
18146;SDS011;9199;48.832;9.182;2023-05-16T08:30:57;14.98;;;10.82;;
18146;SDS011;9199;48.832;9.182;2023-05-16T08:33:23;17.33;;;10.80;;
18146;SDS011;9199;48.832;9.182;2023-05-16T08:35:50;16.23;;;10.90;;
18146;SDS011;9199;48.832;9.182;2023-05-16T08:38:17;18.27;;;11.93;;
18146;SDS011;9199;48.832;9.182;2023-05-16T08:40:44;17.25;;;12.38;;
18146;SDS011;9199;48.832;9.182;2023-05-16T08:43:11;18.92;;;12.70;;
18146;SDS011;9199;48.832;9.182;2023-05-16T08:45:39;18.50;;;12.55;;
18146;SDS011;9199;48.832;9.182;2023-05-16T08:48:07;21.60;;;12.80;;
18146;SDS011;9199;48.832;9.182;2023-05-16T08:50:35;21.92;;;12.93;;
18146;SDS011;9199;48.832;9.182;2023-05-16T08:53:03;20.15;;;13.05;;
18146;SDS011;9199;48.832;9.182;2023-05-16T08:55:32;22.25;;;13.45;;
18146;SDS011;9199;48.832;9.182;2023-05-16T08:57:59;22.73;;;14.02;;
18146;SDS011;9199;48.832;9.182;2023-05-16T09:00:26;22.57;;;13.07;;
18146;SDS011;9199;48.832;9.182;2023-05-16T09:02:53;22.73;;;13.98;;
18146;SDS011;9199;48.832;9.182;2023-05-16T09:05:21;24.27;;;14.20;;
18146;SDS011;9199;48.832;9.182;2023-05-16T09:07:49;21.33;;;13.75;;
18146;SDS011;9199;48.832;9.182;2023-05-16T09:10:15;23.42;;;13.80;;
18146;SDS011;9199;48.832;9.182;2023-05-16T09:12:43;23.20;;;14.40;;
18146;SDS011;9199;48.832;9.182;2023-05-16T09:15:10;25.25;;;15.48;;
18146;SDS011;9199;48.832;9.182;2023-05-16T09:17:38;24.90;;;15.23;;
18146;SDS011;9199;48.832;9.182;2023-05-16T09:20:09;24.90;;;15.57;;
18146;SDS011;9199;48.832;9.182;2023-05-16T09:22:38;23.25;;;15.18;;
18146;SDS011;9199;48.832;9.182;2023-05-16T09:25:15;24.83;;;14.97;;
18146;SDS011;9199;48.832;9.182;2023-05-16T09:27:42;25.30;;;15.98;;
18146;SDS011;9199;48.832;9.182;2023-05-16T09:30:09;27.02;;;16.55;;
18146;SDS011;9199;48.832;9.182;2023-05-16T09:32:41;28.25;;;16.48;;
18146;SDS011;9199;48.832;9.182;2023-05-16T09:35:09;25.67;;;16.27;;
18146;SDS011;9199;48.832;9.182;2023-05-16T09:37:44;24.70;;;15.63;;
18146;SDS011;9199;48.832;9.182;2023-05-16T09:40:11;25.73;;;16.33;;
18146;SDS011;9199;48.832;9.182;2023-05-16T09:42:38;25.30;;;16.08;;
18146;SDS011;9199;48.832;9.182;2023-05-16T09:45:05;26.45;;;16.25;;
18146;SDS011;9199;48.832;9.182;2023-05-16T09:47:36;25.20;;;15.93;;
18146;SDS011;9199;48.832;9.182;2023-05-16T09:50:09;25.00;;;15.30;;
18146;SDS011;9199;48.832;9.182;2023-05-16T09:52:36;24.88;;;15.73;;
18146;SDS011;9199;48.832;9.182;2023-05-16T09:55:06;24.70;;;15.98;;
18146;SDS011;9199;48.832;9.182;2023-05-16T09:57:35;25.00;;;15.50;;
18146;SDS011;9199;48.832;9.182;2023-05-16T10:00:04;26.20;;;16.20;;
18146;SDS011;9199;48.832;9.182;2023-05-16T10:02:32;26.60;;;16.33;;
18146;SDS011;9199;48.832;9.182;2023-05-16T10:04:59;25.55;;;15.68;;
18146;SDS011;9199;48.832;9.182;2023-05-16T10:07:26;28.98;;;18.35;;
18146;SDS011;9199;48.832;9.182;2023-05-16T10:09:56;25.00;;;15.68;;
18146;SDS011;9199;48.832;9.182;2023-05-16T10:12:28;26.70;;;15.32;;
18146;SDS011;9199;48.832;9.182;2023-05-16T10:14:56;25.43;;;15.30;;
18146;SDS011;9199;48.832;9.182;2023-05-16T10:17:24;51.65;;;23.08;;
18146;SDS011;9199;48.832;9.182;2023-05-16T10:19:55;28.23;;;15.18;;
18146;SDS011;9199;48.832;9.182;2023-05-16T10:22:23;22.27;;;14.07;;
18146;SDS011;9199;48.832;9.182;2023-05-16T10:24:55;24.60;;;13.45;;
18146;SDS011;9199;48.832;9.182;2023-05-16T10:27:30;23.13;;;13.63;;
18146;SDS011;9199;48.832;9.182;2023-05-16T10:29:58;25.13;;;14.45;;
18146;SDS011;9199;48.832;9.182;2023-05-16T10:32:26;23.35;;;13.68;;
18146;SDS011;9199;48.832;9.182;2023-05-16T10:34:54;20.58;;;12.95;;
18146;SDS011;9199;48.832;9.182;2023-05-16T10:37:21;21.10;;;12.68;;
18146;SDS011;9199;48.832;9.182;2023-05-16T10:39:49;20.13;;;12.30;;
18146;SDS011;9199;48.832;9.182;2023-05-16T10:42:16;21.27;;;12.55;;
18146;SDS011;9199;48.832;9.182;2023-05-16T10:44:45;23.90;;;13.35;;
18146;SDS011;9199;48.832;9.182;2023-05-16T10:47:12;21.08;;;12.50;;
18146;SDS011;9199;48.832;9.182;2023-05-16T10:49:44;21.15;;;12.43;;
18146;SDS011;9199;48.832;9.182;2023-05-16T10:52:11;21.03;;;11.60;;
18146;SDS011;9199;48.832;9.182;2023-05-16T10:54:40;21.75;;;12.43;;
18146;SDS011;9199;48.832;9.182;2023-05-16T10:57:10;20.83;;;11.70;;
18146;SDS011;9199;48.832;9.182;2023-05-16T10:59:40;21.58;;;11.48;;
18146;SDS011;9199;48.832;9.182;2023-05-16T11:02:21;21.73;;;11.75;;
18146;SDS011;9199;48.832;9.182;2023-05-16T11:04:53;20.83;;;11.47;;
18146;SDS011;9199;48.832;9.182;2023-05-16T11:07:21;17.70;;;10.27;;
18146;SDS011;9199;48.832;9.182;2023-05-16T11:09:52;19.17;;;10.25;;
18146;SDS011;9199;48.832;9.182;2023-05-16T11:12:36;20.27;;;10.85;;
18146;SDS011;9199;48.832;9.182;2023-05-16T11:15:16;19.70;;;10.88;;
18146;SDS011;9199;48.832;9.182;2023-05-16T11:17:46;17.97;;;9.50;;
18146;SDS011;9199;48.832;9.182;2023-05-16T11:20:25;18.17;;;9.82;;
18146;SDS011;9199;48.832;9.182;2023-05-16T11:23:16;15.77;;;9.10;;
18146;SDS011;9199;48.832;9.182;2023-05-16T11:25:45;16.05;;;8.73;;
18146;SDS011;9199;48.832;9.182;2023-05-16T11:28:13;15.93;;;8.45;;
18146;SDS011;9199;48.832;9.182;2023-05-16T11:30:41;14.73;;;8.57;;
18146;SDS011;9199;48.832;9.182;2023-05-16T11:33:09;14.77;;;8.18;;
18146;SDS011;9199;48.832;9.182;2023-05-16T11:35:37;15.90;;;7.40;;
18146;SDS011;9199;48.832;9.182;2023-05-16T11:38:04;15.13;;;7.75;;
18146;SDS011;9199;48.832;9.182;2023-05-16T11:40:31;13.90;;;7.97;;
18146;SDS011;9199;48.832;9.182;2023-05-16T11:42:59;16.03;;;8.53;;
18146;SDS011;9199;48.832;9.182;2023-05-16T11:45:27;11.75;;;7.18;;
18146;SDS011;9199;48.832;9.182;2023-05-16T11:47:54;12.95;;;7.60;;
18146;SDS011;9199;48.832;9.182;2023-05-16T11:50:29;14.07;;;7.95;;
18146;SDS011;9199;48.832;9.182;2023-05-16T11:52:56;14.68;;;8.52;;
18146;SDS011;9199;48.832;9.182;2023-05-16T11:55:23;11.70;;;7.27;;
18146;SDS011;9199;48.832;9.182;2023-05-16T11:57:51;16.05;;;8.43;;
18146;SDS011;9199;48.832;9.182;2023-05-16T12:00:19;11.35;;;7.18;;
18146;SDS011;9199;48.832;9.182;2023-05-16T12:02:48;11.90;;;7.20;;
18146;SDS011;9199;48.832;9.182;2023-05-16T12:05:15;13.82;;;7.47;;
18146;SDS011;9199;48.832;9.182;2023-05-16T12:07:45;14.37;;;7.77;;
18146;SDS011;9199;48.832;9.182;2023-05-16T12:10:13;12.10;;;6.50;;
18146;SDS011;9199;48.832;9.182;2023-05-16T12:12:43;12.63;;;6.40;;
18146;SDS011;9199;48.832;9.182;2023-05-16T12:15:11;11.82;;;6.45;;
18146;SDS011;9199;48.832;9.182;2023-05-16T12:17:39;9.80;;;5.78;;
18146;SDS011;9199;48.832;9.182;2023-05-16T12:20:07;8.97;;;5.00;;
18146;SDS011;9199;48.832;9.182;2023-05-16T12:22:38;7.93;;;4.72;;
18146;SDS011;9199;48.832;9.182;2023-05-16T12:25:21;7.97;;;4.13;;
18146;SDS011;9199;48.832;9.182;2023-05-16T12:27:52;6.97;;;4.00;;
18146;SDS011;9199;48.832;9.182;2023-05-16T12:30:20;6.90;;;3.83;;
18146;SDS011;9199;48.832;9.182;2023-05-16T12:32:51;9.20;;;4.10;;
18146;SDS011;9199;48.832;9.182;2023-05-16T12:35:18;6.30;;;3.40;;
18146;SDS011;9199;48.832;9.182;2023-05-16T12:37:45;7.05;;;3.85;;
18146;SDS011;9199;48.832;9.182;2023-05-16T12:40:12;8.77;;;3.90;;
18146;SDS011;9199;48.832;9.182;2023-05-16T12:42:40;6.47;;;3.50;;
18146;SDS011;9199;48.832;9.182;2023-05-16T12:45:13;5.53;;;3.23;;
18146;SDS011;9199;48.832;9.182;2023-05-16T12:47:41;7.03;;;3.80;;
18146;SDS011;9199;48.832;9.182;2023-05-16T12:50:08;6.28;;;3.40;;
18146;SDS011;9199;48.832;9.182;2023-05-16T12:52:37;5.07;;;3.30;;
18146;SDS011;9199;48.832;9.182;2023-05-16T12:55:11;5.53;;;3.13;;
18146;SDS011;9199;48.832;9.182;2023-05-16T12:57:41;7.40;;;3.20;;
18146;SDS011;9199;48.832;9.182;2023-05-16T13:00:09;5.03;;;3.00;;
18146;SDS011;9199;48.832;9.182;2023-05-16T13:02:37;5.20;;;2.85;;
18146;SDS011;9199;48.832;9.182;2023-05-16T13:05:04;7.40;;;3.05;;
18146;SDS011;9199;48.832;9.182;2023-05-16T13:07:32;5.72;;;3.15;;
18146;SDS011;9199;48.832;9.182;2023-05-16T13:09:58;6.33;;;2.77;;
18146;SDS011;9199;48.832;9.182;2023-05-16T13:12:25;4.97;;;2.80;;
18146;SDS011;9199;48.832;9.182;2023-05-16T13:14:53;6.20;;;2.78;;
18146;SDS011;9199;48.832;9.182;2023-05-16T13:17:20;4.40;;;2.78;;
18146;SDS011;9199;48.832;9.182;2023-05-16T13:19:47;6.13;;;2.65;;
18146;SDS011;9199;48.832;9.182;2023-05-16T13:22:15;5.37;;;2.50;;
18146;SDS011;9199;48.832;9.182;2023-05-16T13:24:42;5.13;;;2.55;;
18146;SDS011;9199;48.832;9.182;2023-05-16T13:27:08;4.80;;;2.20;;
18146;SDS011;9199;48.832;9.182;2023-05-16T13:29:35;4.38;;;2.30;;
18146;SDS011;9199;48.832;9.182;2023-05-16T13:32:03;3.97;;;2.20;;
18146;SDS011;9199;48.832;9.182;2023-05-16T13:34:31;4.70;;;2.27;;
18146;SDS011;9199;48.832;9.182;2023-05-16T13:36:58;5.45;;;2.30;;
18146;SDS011;9199;48.832;9.182;2023-05-16T13:39:25;6.57;;;2.53;;
18146;SDS011;9199;48.832;9.182;2023-05-16T13:41:51;8.77;;;2.72;;
18146;SDS011;9199;48.832;9.182;2023-05-16T13:44:18;5.03;;;2.85;;
18146;SDS011;9199;48.832;9.182;2023-05-16T13:46:46;4.90;;;2.40;;
18146;SDS011;9199;48.832;9.182;2023-05-16T13:49:14;4.55;;;2.47;;
18146;SDS011;9199;48.832;9.182;2023-05-16T13:51:41;6.13;;;2.50;;
18146;SDS011;9199;48.832;9.182;2023-05-16T13:54:07;5.93;;;2.72;;
18146;SDS011;9199;48.832;9.182;2023-05-16T13:56:34;4.50;;;2.58;;
18146;SDS011;9199;48.832;9.182;2023-05-16T13:59:01;4.77;;;2.50;;
18146;SDS011;9199;48.832;9.182;2023-05-16T14:01:28;5.38;;;2.45;;
18146;SDS011;9199;48.832;9.182;2023-05-16T14:03:55;4.75;;;2.40;;
18146;SDS011;9199;48.832;9.182;2023-05-16T14:06:23;4.32;;;2.50;;
18146;SDS011;9199;48.832;9.182;2023-05-16T14:08:50;5.47;;;2.30;;
18146;SDS011;9199;48.832;9.182;2023-05-16T14:11:17;6.43;;;2.40;;
18146;SDS011;9199;48.832;9.182;2023-05-16T14:13:50;7.38;;;2.80;;
18146;SDS011;9199;48.832;9.182;2023-05-16T14:16:16;5.65;;;3.03;;
18146;SDS011;9199;48.832;9.182;2023-05-16T14:18:43;6.50;;;2.65;;
18146;SDS011;9199;48.832;9.182;2023-05-16T14:21:10;6.65;;;2.60;;
18146;SDS011;9199;48.832;9.182;2023-05-16T14:23:38;4.97;;;2.40;;
18146;SDS011;9199;48.832;9.182;2023-05-16T14:26:04;5.38;;;2.40;;
18146;SDS011;9199;48.832;9.182;2023-05-16T14:28:32;4.38;;;2.20;;
18146;SDS011;9199;48.832;9.182;2023-05-16T14:30:58;4.85;;;2.03;;
18146;SDS011;9199;48.832;9.182;2023-05-16T14:33:27;4.00;;;2.10;;
18146;SDS011;9199;48.832;9.182;2023-05-16T14:35:53;4.30;;;2.00;;
18146;SDS011;9199;48.832;9.182;2023-05-16T14:38:20;4.07;;;2.00;;
18146;SDS011;9199;48.832;9.182;2023-05-16T14:40:48;4.10;;;1.95;;
18146;SDS011;9199;48.832;9.182;2023-05-16T14:43:15;5.22;;;1.92;;
18146;SDS011;9199;48.832;9.182;2023-05-16T14:45:41;3.80;;;1.80;;